createdAt,value
2017-11-20T00:00:23.372Z,6.1
2017-11-20T00:01:29.293Z,6.1
2017-11-20T00:02:34.953Z,6.1
2017-11-20T00:03:43.529Z,6.1
2017-11-20T00:04:53.381Z,6.1
2017-11-20T00:06:02.684Z,6.2
2017-11-20T00:07:11.328Z,6.1
2017-11-20T00:08:20.224Z,6.0
2017-11-20T00:09:29.497Z,6.1
2017-11-20T00:10:38.394Z,6.1
2017-11-20T00:11:48.010Z,6.0
2017-11-20T00:12:57.449Z,6.1
2017-11-20T00:14:07.373Z,6.1
2017-11-20T00:15:17.429Z,6.1
2017-11-20T00:16:26.550Z,6.1
2017-11-20T00:17:36.049Z,6.0
2017-11-20T00:18:46.042Z,6.1
2017-11-20T00:19:56.009Z,6.1
2017-11-20T00:21:04.650Z,6.1
2017-11-20T00:22:10.841Z,6.2
2017-11-20T00:23:18.764Z,6.1
2017-11-20T00:24:28.746Z,6.1
2017-11-20T00:25:39.101Z,6.1
2017-11-20T00:26:47.099Z,6.1
2017-11-20T00:27:54.812Z,6.1
2017-11-20T00:29:04.193Z,6.1
2017-11-20T00:30:13.786Z,6.1
2017-11-20T00:31:22.853Z,6.2
2017-11-20T00:32:31.688Z,6.2
2017-11-20T00:33:40.949Z,6.1
2017-11-20T00:34:50.813Z,6.2
2017-11-20T00:36:00.055Z,6.1
2017-11-20T00:37:09.525Z,6.2
2017-11-20T00:38:18.692Z,6.1
2017-11-20T00:39:28.226Z,6.1
2017-11-20T00:40:33.076Z,6.2
2017-11-20T00:41:37.167Z,6.1
2017-11-20T00:42:45.633Z,6.1
2017-11-20T00:43:53.940Z,6.1
2017-11-20T00:45:03.627Z,6.2
2017-11-20T00:46:13.898Z,6.1
2017-11-20T00:47:23.355Z,6.1
2017-11-20T00:48:33.242Z,6.1
2017-11-20T00:49:42.231Z,6.1
2017-11-20T00:50:52.048Z,6.1
2017-11-20T00:52:02.194Z,6.1
2017-11-20T00:53:12.386Z,6.1
2017-11-20T00:54:21.613Z,6.1
2017-11-20T00:55:32.470Z,6.1
2017-11-20T00:56:41.629Z,6.0
2017-11-20T00:57:51.373Z,6.0
2017-11-20T00:59:01.385Z,6.1
2017-11-20T01:00:10.895Z,6.1
2017-11-20T01:01:15.715Z,6.2
2017-11-20T01:02:20.008Z,6.2
2017-11-20T01:03:25.042Z,6.1
2017-11-20T01:04:27.496Z,6.0
2017-11-20T01:05:30.027Z,6.1
2017-11-20T01:06:32.567Z,6.2
2017-11-20T01:07:35.034Z,6.1
2017-11-20T01:08:37.614Z,6.2
2017-11-20T01:09:40.140Z,6.2
2017-11-20T01:10:45.630Z,6.1
2017-11-20T01:11:51.073Z,6.0
2017-11-20T01:12:56.650Z,6.1
2017-11-20T01:14:02.166Z,6.1
2017-11-20T01:15:07.745Z,6.1
2017-11-20T01:16:14.007Z,6.1
2017-11-20T01:17:18.372Z,6.1
2017-11-20T01:18:23.199Z,6.1
2017-11-20T01:19:27.989Z,6.1
2017-11-20T01:20:32.618Z,6.1
2017-11-20T01:21:37.222Z,6.1
2017-11-20T01:22:41.931Z,6.1
2017-11-20T01:23:46.633Z,6.0
2017-11-20T01:24:51.599Z,6.1
2017-11-20T01:25:56.360Z,6.1
2017-11-20T01:27:00.447Z,6.0
2017-11-20T01:28:05.612Z,6.0
2017-11-20T01:29:10.430Z,6.0
2017-11-20T01:30:15.254Z,6.1
2017-11-20T01:31:20.323Z,6.0
2017-11-20T01:32:25.387Z,5.9
2017-11-20T01:33:31.418Z,6.0
2017-11-20T01:34:36.338Z,6.0
2017-11-20T01:35:41.246Z,6.0
2017-11-20T01:36:46.190Z,6.0
2017-11-20T01:37:50.694Z,6.0
2017-11-20T01:38:55.847Z,6.0
2017-11-20T01:40:01.006Z,5.9
2017-11-20T01:41:05.549Z,6.0
2017-11-20T01:42:10.702Z,6.0
2017-11-20T01:43:15.370Z,6.0
2017-11-20T01:44:19.776Z,5.9
2017-11-20T01:45:24.596Z,5.9
2017-11-20T01:46:29.033Z,5.9
2017-11-20T01:47:33.424Z,5.9
2017-11-20T01:48:38.009Z,5.9
2017-11-20T01:49:42.725Z,5.9
2017-11-20T01:50:48.618Z,5.9
2017-11-20T01:51:54.418Z,6.0
2017-11-20T01:52:59.382Z,5.9
2017-11-20T01:54:04.106Z,6.0
2017-11-20T01:55:09.533Z,5.9
2017-11-20T01:56:15.071Z,5.9
2017-11-20T01:57:20.191Z,5.9
2017-11-20T01:58:25.538Z,5.9
2017-11-20T01:59:31.159Z,5.9
2017-11-20T02:00:36.561Z,5.9
2017-11-20T02:01:41.909Z,5.9
2017-11-20T02:02:47.136Z,6.0
2017-11-20T02:03:52.654Z,5.9
2017-11-20T02:04:57.952Z,5.9
2017-11-20T02:06:02.839Z,5.9
2017-11-20T02:07:07.646Z,5.9
2017-11-20T02:08:12.630Z,5.9
2017-11-20T02:09:17.580Z,5.9
2017-11-20T02:10:22.246Z,5.9
2017-11-20T02:11:27.100Z,6.0
2017-11-20T02:12:32.265Z,5.9
2017-11-20T02:13:37.405Z,6.0
2017-11-20T02:14:42.382Z,5.9
2017-11-20T02:15:47.002Z,5.9
2017-11-20T02:16:52.106Z,5.9
2017-11-20T02:17:56.503Z,5.9
2017-11-20T02:19:00.263Z,5.8
2017-11-20T02:20:03.691Z,5.9
2017-11-20T02:21:06.436Z,5.8
2017-11-20T02:22:09.066Z,5.8
2017-11-20T02:23:11.754Z,5.8
2017-11-20T02:24:17.941Z,5.8
2017-11-20T02:25:19.514Z,5.8
2017-11-20T02:26:25.789Z,5.9
2017-11-20T02:27:31.823Z,5.8
2017-11-20T02:28:37.538Z,5.8
2017-11-20T02:29:43.227Z,5.8
2017-11-20T02:30:49.669Z,5.8
2017-11-20T02:31:55.409Z,5.7
2017-11-20T02:33:01.406Z,5.7
2017-11-20T02:34:06.609Z,5.7
2017-11-20T02:35:11.874Z,5.7
2017-11-20T02:36:16.788Z,5.7
2017-11-20T02:37:22.506Z,5.7
2017-11-20T02:38:25.705Z,5.8
2017-11-20T02:39:28.648Z,5.7
2017-11-20T02:40:31.564Z,5.7
2017-11-20T02:41:34.603Z,5.6
2017-11-20T02:42:37.479Z,5.6
2017-11-20T02:43:43.244Z,5.6
2017-11-20T02:44:49.178Z,5.6
2017-11-20T02:45:54.579Z,5.6
2017-11-20T02:46:59.931Z,5.6
2017-11-20T02:48:05.558Z,5.6
2017-11-20T02:49:10.546Z,5.6
2017-11-20T02:50:16.948Z,5.5
2017-11-20T02:51:22.727Z,5.5
2017-11-20T02:52:28.615Z,5.6
2017-11-20T02:53:34.324Z,5.5
2017-11-20T02:54:39.446Z,5.5
2017-11-20T02:55:44.971Z,5.5
2017-11-20T02:56:49.441Z,5.5
2017-11-20T02:57:54.220Z,5.5
2017-11-20T02:58:58.742Z,5.5
2017-11-20T03:00:03.201Z,5.6
2017-11-20T03:01:07.899Z,5.6
2017-11-20T03:02:12.753Z,5.6
2017-11-20T03:03:17.914Z,5.5
2017-11-20T03:04:23.247Z,5.5
2017-11-20T03:05:28.633Z,5.6
2017-11-20T03:06:34.140Z,5.5
2017-11-20T03:07:40.108Z,5.5
2017-11-20T03:08:45.980Z,5.6
2017-11-20T03:09:51.248Z,5.5
2017-11-20T03:10:56.826Z,5.5
2017-11-20T03:12:03.087Z,5.4
2017-11-20T03:13:09.039Z,5.5
2017-11-20T03:14:14.633Z,5.4
2017-11-20T03:15:20.600Z,5.5
2017-11-20T03:16:26.708Z,5.5
2017-11-20T03:17:32.665Z,5.4
2017-11-20T03:18:38.694Z,5.4
2017-11-20T03:19:44.263Z,5.4
2017-11-20T03:20:50.380Z,5.4
2017-11-20T03:21:56.659Z,5.5
2017-11-20T03:23:02.514Z,5.4
2017-11-20T03:24:08.089Z,5.4
2017-11-20T03:25:13.737Z,5.4
2017-11-20T03:26:19.059Z,5.4
2017-11-20T03:27:24.671Z,5.5
2017-11-20T03:28:29.829Z,5.4
2017-11-20T03:29:35.486Z,5.5
2017-11-20T03:30:40.927Z,5.4
2017-11-20T03:31:45.556Z,5.5
2017-11-20T03:32:51.387Z,5.5
2017-11-20T03:33:57.100Z,5.5
2017-11-20T03:35:02.815Z,5.6
2017-11-20T03:36:08.517Z,5.5
2017-11-20T03:37:14.103Z,5.4
2017-11-20T03:38:19.517Z,5.5
2017-11-20T03:39:22.227Z,5.5
2017-11-20T03:40:27.494Z,5.5
2017-11-20T03:41:33.289Z,5.5
2017-11-20T03:42:38.948Z,5.5
2017-11-20T03:43:44.181Z,5.5
2017-11-20T03:44:49.329Z,5.5
2017-11-20T03:45:52.621Z,5.5
2017-11-20T03:46:55.401Z,5.6
2017-11-20T03:47:58.168Z,5.5
2017-11-20T03:49:00.984Z,5.5
2017-11-20T03:50:03.628Z,5.5
2017-11-20T03:51:06.306Z,5.5
2017-11-20T03:52:11.750Z,5.6
2017-11-20T03:53:17.637Z,5.5
2017-11-20T03:54:23.006Z,5.5
2017-11-20T03:55:30.094Z,5.5
2017-11-20T03:56:36.001Z,5.5
2017-11-20T03:57:41.063Z,5.5
2017-11-20T03:58:46.025Z,5.5
2017-11-20T03:59:50.855Z,5.5
2017-11-20T04:00:55.955Z,5.5
2017-11-20T04:02:01.705Z,5.5
2017-11-20T04:03:06.943Z,5.4
2017-11-20T04:04:12.569Z,5.5
2017-11-20T04:05:18.258Z,5.4
2017-11-20T04:06:23.795Z,5.4
2017-11-20T04:07:29.412Z,5.5
2017-11-20T04:08:35.301Z,5.4
2017-11-20T04:09:41.131Z,5.5
2017-11-20T04:10:47.802Z,5.4
2017-11-20T04:11:53.712Z,5.4
2017-11-20T04:12:59.160Z,5.5
2017-11-20T04:14:04.721Z,5.5
2017-11-20T04:15:10.912Z,5.5
2017-11-20T04:16:12.486Z,5.5
2017-11-20T04:17:14.091Z,5.5
2017-11-20T04:18:15.690Z,5.5
2017-11-20T04:19:17.294Z,5.4
2017-11-20T04:20:18.902Z,5.5
2017-11-20T04:21:20.510Z,5.5
2017-11-20T04:22:22.111Z,5.5
2017-11-20T04:23:23.712Z,5.4
2017-11-20T04:24:25.346Z,5.5
2017-11-20T04:25:26.965Z,5.5
2017-11-20T04:26:28.565Z,5.6
2017-11-20T04:27:30.169Z,5.5
2017-11-20T04:28:31.776Z,5.5
2017-11-20T04:29:33.381Z,5.6
2017-11-20T04:30:34.979Z,5.4
2017-11-20T04:31:36.590Z,5.4
2017-11-20T04:32:38.200Z,5.5
2017-11-20T04:33:39.801Z,5.6
2017-11-20T04:34:41.402Z,5.5
2017-11-20T04:35:43.028Z,5.6
2017-11-20T04:36:44.638Z,5.6
2017-11-20T04:37:46.245Z,5.5
2017-11-20T04:38:47.843Z,5.5
2017-11-20T04:39:49.445Z,5.6
2017-11-20T04:40:51.056Z,5.5
2017-11-20T04:41:52.662Z,5.6
2017-11-20T04:42:54.260Z,5.6
2017-11-20T04:43:55.871Z,5.5
2017-11-20T04:44:57.468Z,5.5
2017-11-20T04:45:59.076Z,5.6
2017-11-20T04:47:00.676Z,5.5
2017-11-20T04:48:02.290Z,5.6
2017-11-20T04:49:03.891Z,5.6
2017-11-20T04:50:05.502Z,5.6
2017-11-20T04:51:07.101Z,5.6
2017-11-20T04:52:08.705Z,5.5
2017-11-20T04:53:10.305Z,5.5
2017-11-20T04:54:11.913Z,5.4
2017-11-20T04:55:13.514Z,5.5
2017-11-20T04:56:15.124Z,5.4
2017-11-20T04:57:16.723Z,5.5
2017-11-20T04:58:18.336Z,5.4
2017-11-20T04:59:19.935Z,5.5
2017-11-20T05:00:21.532Z,5.4
2017-11-20T05:01:23.143Z,5.5
2017-11-20T05:02:24.750Z,5.4
2017-11-20T05:03:26.357Z,5.5
2017-11-20T05:04:27.964Z,5.5
2017-11-20T05:05:29.564Z,5.4
2017-11-20T05:06:31.172Z,5.4
2017-11-20T05:07:32.771Z,5.4
2017-11-20T05:08:34.374Z,5.5
2017-11-20T05:09:35.981Z,5.4
2017-11-20T05:10:37.589Z,5.4
2017-11-20T05:11:39.186Z,5.4
2017-11-20T05:12:40.798Z,5.4
2017-11-20T05:13:42.401Z,5.4
2017-11-20T05:14:44.008Z,5.4
2017-11-20T05:15:45.603Z,5.4
2017-11-20T05:16:47.213Z,5.4
2017-11-20T05:17:48.809Z,5.4
2017-11-20T05:18:50.413Z,5.3
2017-11-20T05:19:52.017Z,5.4
2017-11-20T05:20:53.621Z,5.3
2017-11-20T05:21:55.225Z,5.3
2017-11-20T05:22:56.827Z,5.4
2017-11-20T05:23:58.437Z,5.4
2017-11-20T05:25:00.035Z,5.4
2017-11-20T05:26:01.648Z,5.4
2017-11-20T05:27:03.248Z,5.4
2017-11-20T05:28:04.862Z,5.4
2017-11-20T05:29:06.457Z,5.4
2017-11-20T05:30:08.066Z,5.3
2017-11-20T05:31:09.672Z,5.3
2017-11-20T05:32:11.277Z,5.3
2017-11-20T05:33:12.884Z,5.2
2017-11-20T05:34:14.490Z,5.3
2017-11-20T05:35:16.094Z,5.3
2017-11-20T05:36:17.691Z,5.2
2017-11-20T05:37:19.296Z,5.2
2017-11-20T05:38:20.904Z,5.2
2017-11-20T05:39:22.509Z,5.2
2017-11-20T05:40:24.113Z,5.3
2017-11-20T05:41:25.735Z,5.3
2017-11-20T05:42:27.344Z,5.3
2017-11-20T05:43:28.941Z,5.3
2017-11-20T05:44:30.540Z,5.2
2017-11-20T05:45:32.151Z,5.2
2017-11-20T05:46:33.751Z,5.2
2017-11-20T05:47:35.360Z,5.2
2017-11-20T05:48:36.968Z,5.2
2017-11-20T05:49:38.564Z,5.2
2017-11-20T05:50:40.169Z,5.2
2017-11-20T05:51:41.773Z,5.2
2017-11-20T05:52:43.382Z,5.2
2017-11-20T05:53:44.988Z,5.1
2017-11-20T05:54:46.589Z,5.2
2017-11-20T05:55:48.199Z,5.1
2017-11-20T05:56:49.797Z,5.1
2017-11-20T05:57:51.400Z,5.1
2017-11-20T05:58:53.009Z,5.1
2017-11-20T05:59:54.618Z,5.1
2017-11-20T06:00:56.216Z,5.1
2017-11-20T06:01:57.841Z,5.1
2017-11-20T06:02:59.429Z,5.1
2017-11-20T06:04:01.030Z,5.1
2017-11-20T06:05:02.639Z,5.1
2017-11-20T06:06:04.237Z,5.0
2017-11-20T06:07:05.838Z,5.1
2017-11-20T06:08:07.447Z,5.1
2017-11-20T06:09:09.061Z,5.0
2017-11-20T06:10:10.675Z,5.1
2017-11-20T06:11:12.277Z,5.0
2017-11-20T06:12:13.880Z,5.1
2017-11-20T06:13:15.488Z,5.1
2017-11-20T06:14:17.095Z,5.1
2017-11-20T06:15:18.695Z,5.1
2017-11-20T06:16:20.299Z,5.1
2017-11-20T06:17:21.909Z,5.1
2017-11-20T06:18:23.512Z,5.1
2017-11-20T06:19:25.156Z,5.1
2017-11-20T06:20:26.734Z,5.2
2017-11-20T06:21:28.340Z,5.1
2017-11-20T06:22:29.948Z,5.2
2017-11-20T06:23:31.554Z,5.1
2017-11-20T06:24:33.151Z,5.3
2017-11-20T06:25:34.754Z,5.2
2017-11-20T06:26:36.370Z,5.4
2017-11-20T06:27:37.968Z,5.4
2017-11-20T06:28:39.581Z,5.6
2017-11-20T06:29:41.181Z,5.5
2017-11-20T06:30:42.786Z,5.7
2017-11-20T06:31:44.397Z,5.7
2017-11-20T06:32:46.013Z,5.8
2017-11-20T06:33:47.606Z,5.8
2017-11-20T06:34:49.208Z,5.8
2017-11-20T06:35:50.818Z,6.0
2017-11-20T06:36:52.425Z,6.1
2017-11-20T06:37:54.827Z,6.0
2017-11-20T06:38:56.433Z,6.0
2017-11-20T06:39:58.041Z,6.1
2017-11-20T06:40:59.641Z,6.2
2017-11-20T06:42:01.241Z,6.0
2017-11-20T06:43:02.853Z,6.1
2017-11-20T06:44:04.457Z,6.4
2017-11-20T06:45:06.058Z,6.2
2017-11-20T06:46:07.667Z,6.2
2017-11-20T06:47:09.269Z,6.2
2017-11-20T06:48:10.880Z,6.2
2017-11-20T06:49:12.482Z,6.1
2017-11-20T06:50:14.100Z,6.1
2017-11-20T06:51:15.697Z,6.1
2017-11-20T06:52:17.308Z,6.0
2017-11-20T06:53:18.921Z,6.0
2017-11-20T06:54:20.523Z,5.9
2017-11-20T06:55:22.125Z,5.8
2017-11-20T06:56:23.733Z,5.8
2017-11-20T06:57:25.340Z,5.7
2017-11-20T06:58:26.945Z,5.8
2017-11-20T06:59:28.553Z,5.8
2017-11-20T07:00:30.161Z,5.8
2017-11-20T07:01:31.774Z,5.8
2017-11-20T07:02:33.374Z,5.8
2017-11-20T07:03:34.984Z,5.8
2017-11-20T07:04:36.587Z,5.8
2017-11-20T07:05:38.193Z,5.8
2017-11-20T07:06:39.796Z,5.7
2017-11-20T07:07:41.406Z,5.7
2017-11-20T07:08:43.007Z,5.7
2017-11-20T07:09:44.617Z,5.7
2017-11-20T07:10:46.219Z,5.7
2017-11-20T07:11:47.825Z,5.7
2017-11-20T07:12:49.440Z,5.7
2017-11-20T07:13:51.051Z,5.7
2017-11-20T07:14:52.656Z,5.7
2017-11-20T07:15:54.262Z,5.6
2017-11-20T07:16:55.871Z,5.6
2017-11-20T07:17:57.480Z,5.7
2017-11-20T07:18:59.086Z,5.6
2017-11-20T07:20:00.695Z,5.7
2017-11-20T07:21:02.307Z,5.7
2017-11-20T07:22:03.919Z,5.7
2017-11-20T07:23:05.521Z,5.7
2017-11-20T07:24:07.128Z,5.8
2017-11-20T07:25:08.742Z,5.7
2017-11-20T07:26:10.352Z,5.7
2017-11-20T07:27:11.962Z,5.6
2017-11-20T07:28:13.577Z,5.7
2017-11-20T07:29:15.184Z,5.7
2017-11-20T07:30:16.792Z,5.7
2017-11-20T07:31:18.398Z,5.6
2017-11-20T07:32:20.007Z,5.6
2017-11-20T07:33:21.612Z,5.6
2017-11-20T07:34:23.226Z,5.6
2017-11-20T07:35:24.831Z,5.5
2017-11-20T07:36:26.445Z,5.5
2017-11-20T07:37:28.045Z,5.6
2017-11-20T07:38:29.658Z,5.5
2017-11-20T07:39:31.268Z,5.6
2017-11-20T07:40:32.877Z,5.6
2017-11-20T07:41:34.484Z,5.6
2017-11-20T07:42:36.093Z,5.6
2017-11-20T07:43:37.706Z,5.6
2017-11-20T07:44:39.307Z,5.5
2017-11-20T07:45:40.921Z,5.6
2017-11-20T07:46:42.524Z,5.5
2017-11-20T07:47:44.138Z,5.4
2017-11-20T07:48:45.740Z,5.4
2017-11-20T07:49:47.358Z,5.4
2017-11-20T07:50:48.964Z,5.4
2017-11-20T07:51:50.573Z,5.4
2017-11-20T07:52:52.178Z,5.3
2017-11-20T07:53:53.791Z,5.3
2017-11-20T07:54:55.395Z,5.2
2017-11-20T07:55:57.007Z,5.3
2017-11-20T07:56:58.613Z,5.3
2017-11-20T07:58:00.226Z,5.3
2017-11-20T07:59:01.836Z,5.2
2017-11-20T08:00:03.442Z,5.2
2017-11-20T08:01:05.049Z,5.2
2017-11-20T08:02:06.661Z,5.2
2017-11-20T08:03:08.270Z,5.2
2017-11-20T08:04:09.879Z,5.3
2017-11-20T08:05:11.493Z,5.2
2017-11-20T08:06:13.104Z,5.2
2017-11-20T08:07:14.713Z,5.3
2017-11-20T08:08:16.335Z,5.2
2017-11-20T08:09:17.929Z,5.2
2017-11-20T08:10:19.540Z,5.2
2017-11-20T08:11:21.152Z,5.1
2017-11-20T08:12:24.085Z,5.2
2017-11-20T08:13:24.364Z,5.1
2017-11-20T08:14:25.974Z,5.1
2017-11-20T08:15:27.582Z,5.1
2017-11-20T08:16:29.184Z,5.1
2017-11-20T08:17:30.795Z,5.1
2017-11-20T08:18:32.402Z,5.1
2017-11-20T08:19:34.017Z,5.1
2017-11-20T08:20:35.616Z,5.2
2017-11-20T08:21:37.224Z,5.2
2017-11-20T08:22:38.839Z,5.1
2017-11-20T08:23:40.440Z,5.1
2017-11-20T08:24:42.052Z,5.1
2017-11-20T08:25:43.664Z,5.1
2017-11-20T08:26:45.268Z,5.1
2017-11-20T08:27:46.873Z,5.1
2017-11-20T08:28:48.488Z,5.1
2017-11-20T08:29:50.096Z,5.1
2017-11-20T08:30:51.702Z,5.2
2017-11-20T08:31:53.314Z,5.1
2017-11-20T08:32:54.920Z,5.1
2017-11-20T08:33:56.534Z,5.1
2017-11-20T08:34:58.137Z,5.1
2017-11-20T08:35:59.746Z,5.1
2017-11-20T08:37:01.353Z,5.1
2017-11-20T08:38:02.963Z,5.1
2017-11-20T08:39:04.569Z,5.1
2017-11-20T08:40:06.183Z,5.1
2017-11-20T08:41:07.790Z,5.1
2017-11-20T08:42:09.396Z,5.1
2017-11-20T08:43:11.008Z,5.2
2017-11-20T08:44:12.618Z,5.1
2017-11-20T08:45:14.224Z,5.1
2017-11-20T08:46:15.833Z,5.2
2017-11-20T08:47:17.449Z,5.1
2017-11-20T08:48:19.058Z,5.1
2017-11-20T08:49:20.667Z,5.1
2017-11-20T08:50:22.274Z,5.1
2017-11-20T08:51:23.891Z,5.1
2017-11-20T08:52:25.493Z,5.1
2017-11-20T08:53:27.108Z,5.1
2017-11-20T08:54:28.712Z,5.1
2017-11-20T08:55:30.327Z,5.1
2017-11-20T08:56:31.939Z,5.1
2017-11-20T08:57:33.546Z,5.2
2017-11-20T08:58:35.156Z,5.1
2017-11-20T08:59:36.761Z,5.1
2017-11-20T09:00:38.376Z,5.1
2017-11-20T09:01:39.983Z,5.1
2017-11-20T09:02:41.596Z,5.1
2017-11-20T09:03:43.199Z,5.1
2017-11-20T09:04:44.811Z,5.0
2017-11-20T09:05:46.420Z,5.1
2017-11-20T09:06:48.025Z,5.0
2017-11-20T09:07:49.640Z,5.1
2017-11-20T09:08:51.255Z,5.1
2017-11-20T09:09:52.860Z,5.1
2017-11-20T09:10:54.467Z,5.0
2017-11-20T09:11:56.078Z,5.1
2017-11-20T09:12:57.686Z,5.0
2017-11-20T09:13:59.298Z,5.1
2017-11-20T09:15:00.904Z,5.1
2017-11-20T09:16:02.520Z,5.1
2017-11-20T09:17:04.126Z,5.2
2017-11-20T09:18:05.741Z,5.1
2017-11-20T09:19:07.347Z,5.2
2017-11-20T09:20:08.957Z,5.3
2017-11-20T09:21:10.564Z,5.3
2017-11-20T09:22:12.177Z,5.3
2017-11-20T09:23:13.787Z,5.2
2017-11-20T09:24:15.399Z,5.3
2017-11-20T09:25:17.009Z,5.2
2017-11-20T09:26:18.618Z,5.2
2017-11-20T09:27:20.223Z,5.3
2017-11-20T09:28:21.834Z,5.2
2017-11-20T09:29:23.441Z,5.2
2017-11-20T09:30:25.054Z,5.3
2017-11-20T09:31:26.662Z,5.2
2017-11-20T09:32:28.274Z,5.2
2017-11-20T09:33:29.878Z,5.2
2017-11-20T09:34:31.493Z,5.2
2017-11-20T09:35:33.098Z,5.2
2017-11-20T09:36:34.757Z,5.3
2017-11-20T09:37:36.318Z,5.2
2017-11-20T09:38:37.931Z,5.2
2017-11-20T09:39:39.539Z,5.2
2017-11-20T09:40:41.144Z,5.1
2017-11-20T09:41:42.764Z,5.1
2017-11-20T09:42:44.373Z,5.2
2017-11-20T09:43:45.988Z,5.2
2017-11-20T09:44:47.593Z,5.2
2017-11-20T09:45:49.209Z,5.2
2017-11-20T09:46:50.819Z,5.2
2017-11-20T09:47:52.425Z,5.1
2017-11-20T09:48:54.032Z,5.2
2017-11-20T09:49:55.645Z,5.1
2017-11-20T09:50:57.248Z,5.1
2017-11-20T09:51:58.862Z,5.1
2017-11-20T09:53:00.469Z,5.2
2017-11-20T09:54:02.085Z,5.1
2017-11-20T09:55:03.693Z,5.1
2017-11-20T09:56:05.299Z,5.1
2017-11-20T09:57:06.927Z,5.2
2017-11-20T09:58:08.528Z,5.1
2017-11-20T09:59:10.137Z,5.2
2017-11-20T10:00:11.747Z,5.2
2017-11-20T10:01:13.354Z,5.1
2017-11-20T10:02:14.961Z,5.0
2017-11-20T10:03:16.574Z,5.0
2017-11-20T10:04:18.187Z,5.1
2017-11-20T10:05:19.791Z,5.2
2017-11-20T10:06:21.400Z,5.1
2017-11-20T10:07:23.017Z,5.2
2017-11-20T10:08:24.626Z,5.2
2017-11-20T10:09:26.230Z,5.1
2017-11-20T10:10:27.837Z,5.2
2017-11-20T10:11:29.445Z,5.1
2017-11-20T10:12:31.055Z,5.1
2017-11-20T10:13:32.666Z,5.1
2017-11-20T10:14:34.273Z,5.1
2017-11-20T10:15:35.886Z,5.0
2017-11-20T10:16:37.496Z,5.1
2017-11-20T10:17:39.101Z,5.1
2017-11-20T10:18:40.718Z,5.1
2017-11-20T10:19:42.326Z,5.1
2017-11-20T10:20:43.939Z,5.1
2017-11-20T10:21:45.551Z,5.0
2017-11-20T10:22:47.161Z,5.1
2017-11-20T10:23:48.767Z,5.0
2017-11-20T10:24:50.374Z,5.1
2017-11-20T10:25:51.986Z,5.0
2017-11-20T10:26:53.592Z,5.0
2017-11-20T10:27:55.206Z,5.0
2017-11-20T10:28:56.817Z,5.1
2017-11-20T10:29:58.430Z,5.0
2017-11-20T10:31:00.041Z,5.1
2017-11-20T10:32:01.653Z,5.0
2017-11-20T10:33:03.260Z,5.0
2017-11-20T10:34:04.877Z,5.0
2017-11-20T10:35:06.486Z,5.1
2017-11-20T10:36:08.095Z,5.0
2017-11-20T10:37:10.370Z,5.0
2017-11-20T10:38:11.976Z,4.9
2017-11-20T10:39:13.592Z,5.0
2017-11-20T10:40:15.197Z,5.0
2017-11-20T10:41:16.809Z,5.0
2017-11-20T10:42:18.416Z,5.0
2017-11-20T10:43:20.026Z,5.1
2017-11-20T10:44:21.638Z,5.0
2017-11-20T10:45:23.245Z,5.1
2017-11-20T10:46:24.861Z,5.0
2017-11-20T10:47:26.466Z,5.1
2017-11-20T10:48:28.077Z,5.1
2017-11-20T10:49:29.691Z,5.0
2017-11-20T10:50:31.297Z,5.2
2017-11-20T10:51:32.910Z,5.1
2017-11-20T10:52:34.515Z,5.2
2017-11-20T10:53:36.131Z,5.1
2017-11-20T10:54:37.743Z,5.1
2017-11-20T10:55:39.352Z,5.1
2017-11-20T10:56:40.967Z,5.1
2017-11-20T10:57:42.573Z,5.2
2017-11-20T10:58:44.184Z,5.1
2017-11-20T10:59:45.800Z,5.1
2017-11-20T11:00:47.410Z,5.1
2017-11-20T11:01:49.017Z,5.0
2017-11-20T11:02:50.624Z,5.0
2017-11-20T11:03:52.246Z,5.0
2017-11-20T11:04:53.846Z,5.1
2017-11-20T11:05:55.458Z,5.0
2017-11-20T11:06:57.063Z,5.0
2017-11-20T11:07:58.676Z,5.0
2017-11-20T11:09:00.282Z,5.0
2017-11-20T11:10:01.891Z,5.0
2017-11-20T11:11:03.509Z,5.1
2017-11-20T11:12:05.118Z,5.0
2017-11-20T11:13:06.724Z,5.1
2017-11-20T11:14:08.332Z,5.0
2017-11-20T11:15:09.969Z,5.0
2017-11-20T11:16:11.556Z,5.0
2017-11-20T11:17:13.159Z,5.0
2017-11-20T11:18:14.769Z,5.1
2017-11-20T11:19:16.377Z,5.0
2017-11-20T11:20:17.983Z,5.0
2017-11-20T11:21:19.590Z,5.0
2017-11-20T11:22:21.209Z,5.1
2017-11-20T11:23:22.813Z,5.1
2017-11-20T11:24:24.423Z,5.0
2017-11-20T11:25:26.037Z,5.0
2017-11-20T11:26:27.644Z,5.0
2017-11-20T11:27:29.260Z,5.0
2017-11-20T11:28:30.865Z,5.0
2017-11-20T11:29:32.477Z,5.0
2017-11-20T11:30:34.081Z,5.0
2017-11-20T11:31:35.692Z,4.9
2017-11-20T11:32:37.301Z,5.0
2017-11-20T11:33:38.916Z,5.0
2017-11-20T11:34:40.519Z,5.0
2017-11-20T11:35:42.132Z,5.0
2017-11-20T11:36:43.736Z,5.1
2017-11-20T11:37:45.350Z,5.1
2017-11-20T11:38:46.955Z,5.0
2017-11-20T11:39:48.572Z,5.1
2017-11-20T11:40:50.187Z,5.0
2017-11-20T11:41:51.789Z,5.0
2017-11-20T11:42:53.408Z,5.1
2017-11-20T11:43:55.025Z,5.0
2017-11-20T11:44:56.622Z,5.0
2017-11-20T11:45:58.229Z,5.1
2017-11-20T11:46:59.844Z,5.1
2017-11-20T11:48:01.463Z,5.1
2017-11-20T11:49:03.076Z,5.0
2017-11-20T11:50:04.680Z,5.0
2017-11-20T11:51:06.292Z,5.1
2017-11-20T11:52:07.922Z,5.2
2017-11-20T11:53:09.518Z,5.2
2017-11-20T11:54:11.126Z,5.1
2017-11-20T11:55:12.733Z,5.2
2017-11-20T11:56:14.366Z,5.2
2017-11-20T11:57:15.955Z,5.2
2017-11-20T11:58:17.564Z,5.1
2017-11-20T11:59:19.171Z,5.1
2017-11-20T12:00:20.789Z,5.2
2017-11-20T12:01:22.393Z,5.2
2017-11-20T12:02:24.005Z,5.2
2017-11-20T12:03:25.606Z,5.2
2017-11-20T12:04:27.226Z,5.2
2017-11-20T12:05:28.836Z,5.3
2017-11-20T12:06:30.442Z,5.3
2017-11-20T12:07:32.050Z,5.3
2017-11-20T12:08:33.668Z,5.3
2017-11-20T12:09:35.282Z,5.2
2017-11-20T12:10:36.889Z,5.3
2017-11-20T12:11:38.499Z,5.3
2017-11-20T12:12:40.115Z,5.2
2017-11-20T12:13:41.719Z,5.4
2017-11-20T12:14:43.333Z,5.3
2017-11-20T12:15:44.945Z,5.2
2017-11-20T12:16:46.553Z,5.3
2017-11-20T12:17:48.163Z,5.2
2017-11-20T12:18:49.775Z,5.2
2017-11-20T12:19:51.390Z,5.4
2017-11-20T12:20:52.997Z,5.2
2017-11-20T12:21:54.613Z,5.2
2017-11-20T12:22:56.233Z,5.2
2017-11-20T12:23:57.854Z,5.2
2017-11-20T12:24:59.453Z,5.2
2017-11-20T12:26:01.065Z,5.2
2017-11-20T12:27:02.678Z,5.2
2017-11-20T12:28:04.290Z,5.2
2017-11-20T12:29:05.917Z,5.2
2017-11-20T12:30:07.544Z,5.2
2017-11-20T12:31:09.146Z,5.2
2017-11-20T12:32:10.757Z,5.2
2017-11-20T12:33:12.374Z,5.3
2017-11-20T12:34:13.978Z,5.2
2017-11-20T12:35:15.586Z,5.2
2017-11-20T12:36:17.195Z,5.2
2017-11-20T12:37:18.809Z,5.2
2017-11-20T12:38:20.414Z,5.1
2017-11-20T12:39:22.031Z,5.1
2017-11-20T12:40:23.638Z,5.2
2017-11-20T12:41:25.262Z,5.2
2017-11-20T12:42:26.865Z,5.2
2017-11-20T12:43:28.481Z,5.2
2017-11-20T12:44:30.088Z,5.1
2017-11-20T12:45:31.705Z,5.1
2017-11-20T12:46:33.310Z,5.1
2017-11-20T12:47:34.922Z,5.1
2017-11-20T12:48:36.528Z,5.1
2017-11-20T12:49:38.143Z,5.1
2017-11-20T12:50:39.748Z,5.1
2017-11-20T12:51:41.366Z,5.1
2017-11-20T12:52:42.974Z,5.1
2017-11-20T12:53:44.587Z,5.2
2017-11-20T12:54:46.198Z,5.2
2017-11-20T12:55:47.807Z,5.2
2017-11-20T12:56:49.418Z,5.1
2017-11-20T12:57:51.038Z,5.2
2017-11-20T12:58:52.642Z,5.2
2017-11-20T12:59:54.253Z,5.3
2017-11-20T13:00:55.867Z,5.2
2017-11-20T13:01:57.472Z,5.2
2017-11-20T13:02:59.083Z,5.3
2017-11-20T13:04:00.691Z,5.2
2017-11-20T13:05:02.301Z,5.3
2017-11-20T13:06:03.914Z,5.2
2017-11-20T13:07:05.526Z,5.2
2017-11-20T13:08:07.129Z,5.2
2017-11-20T13:09:08.747Z,5.3
2017-11-20T13:10:10.376Z,5.3
2017-11-20T13:11:11.991Z,5.3
2017-11-20T13:12:13.596Z,5.3
2017-11-20T13:13:15.204Z,5.2
2017-11-20T13:14:16.819Z,5.2
2017-11-20T13:15:18.428Z,5.2
2017-11-20T13:16:20.034Z,5.3
2017-11-20T13:17:21.642Z,5.2
2017-11-20T13:18:23.255Z,5.3
2017-11-20T13:19:24.876Z,5.3
2017-11-20T13:20:26.483Z,5.4
2017-11-20T13:21:28.091Z,5.3
2017-11-20T13:22:29.716Z,5.3
2017-11-20T13:23:31.328Z,5.4
2017-11-20T13:24:32.943Z,5.4
2017-11-20T13:25:34.544Z,5.4
2017-11-20T13:26:36.155Z,5.4
2017-11-20T13:27:37.771Z,5.4
2017-11-20T13:28:39.381Z,5.5
2017-11-20T13:29:40.991Z,5.4
2017-11-20T13:30:42.599Z,5.5
2017-11-20T13:31:44.211Z,5.6
2017-11-20T13:32:45.817Z,5.6
2017-11-20T13:33:47.431Z,5.6
2017-11-20T13:34:49.041Z,5.6
2017-11-20T13:35:50.654Z,5.5
2017-11-20T13:36:52.260Z,5.5
2017-11-20T13:37:53.872Z,5.6
2017-11-20T13:38:55.482Z,5.6
2017-11-20T13:39:57.092Z,5.6
2017-11-20T13:40:58.702Z,5.6
2017-11-20T13:42:00.324Z,5.6
2017-11-20T13:43:01.923Z,5.6
2017-11-20T13:44:03.530Z,5.7
2017-11-20T13:45:05.144Z,5.7
2017-11-20T13:46:06.749Z,5.7
2017-11-20T13:47:08.364Z,5.7
2017-11-20T13:48:09.983Z,5.7
2017-11-20T13:49:11.585Z,5.7
2017-11-20T13:50:13.194Z,5.7
2017-11-20T13:51:14.806Z,5.7
2017-11-20T13:52:16.409Z,5.7
2017-11-20T13:53:18.021Z,5.7
2017-11-20T13:54:19.628Z,5.7
2017-11-20T13:55:21.244Z,5.7
2017-11-20T13:56:22.849Z,5.7
2017-11-20T13:57:24.465Z,5.7
2017-11-20T13:58:26.071Z,5.6
2017-11-20T13:59:27.681Z,5.7
2017-11-20T14:00:29.293Z,5.7
2017-11-20T14:01:30.901Z,5.6
2017-11-20T14:02:32.512Z,5.6
2017-11-20T14:03:34.119Z,5.7
2017-11-20T14:04:35.733Z,5.7
2017-11-20T14:05:37.332Z,5.8
2017-11-20T14:06:38.944Z,5.7
2017-11-20T14:07:40.547Z,5.7
2017-11-20T14:08:42.162Z,5.8
2017-11-20T14:09:43.768Z,5.7
2017-11-20T14:10:45.382Z,5.7
2017-11-20T14:11:46.991Z,5.8
2017-11-20T14:12:48.595Z,5.7
2017-11-20T14:13:50.200Z,5.7
2017-11-20T14:14:51.810Z,5.8
2017-11-20T14:15:53.418Z,5.8
2017-11-20T14:16:55.030Z,5.8
2017-11-20T14:17:56.632Z,5.7
2017-11-20T14:18:58.242Z,5.7
2017-11-20T14:19:59.853Z,5.7
2017-11-20T14:21:01.464Z,5.7
2017-11-20T14:22:03.068Z,5.7
2017-11-20T14:23:04.671Z,5.7
2017-11-20T14:24:06.282Z,5.7
2017-11-20T14:25:07.895Z,5.7